sensor_id;sensor_type;location;lat;lon;timestamp;pressure;altitude;pressure_sealevel;temperature;humidity
22283;BME280;11310;51.528;21.204;2023-07-20T00:01:14;99161.91;;;17.12;80.62
22283;BME280;11310;51.528;21.204;2023-07-20T00:03:43;99155.66;;;17.13;80.60
22283;BME280;11310;51.528;21.204;2023-07-20T00:06:22;99149.91;;;17.08;80.92
22283;BME280;11310;51.528;21.204;2023-07-20T00:08:51;99151.84;;;17.06;81.17
22283;BME280;11310;51.528;21.204;2023-07-20T00:11:25;99143.72;;;16.98;82.10
22283;BME280;11310;51.528;21.204;2023-07-20T00:13:54;99151.22;;;16.93;82.05
22283;BME280;11310;51.528;21.204;2023-07-20T00:16:24;99148.13;;;16.88;82.39
22283;BME280;11310;51.528;21.204;2023-07-20T00:18:53;99140.84;;;16.81;82.09
22283;BME280;11310;51.528;21.204;2023-07-20T00:21:23;99148.22;;;16.77;82.45
22283;BME280;11310;51.528;21.204;2023-07-20T00:23:53;99146.66;;;16.75;82.61
22283;BME280;11310;51.528;21.204;2023-07-20T00:26:24;99144.13;;;16.73;82.74
22283;BME280;11310;51.528;21.204;2023-07-20T00:28:53;99142.97;;;16.66;82.97
22283;BME280;11310;51.528;21.204;2023-07-20T00:31:21;99143.25;;;16.63;83.29
22283;BME280;11310;51.528;21.204;2023-07-20T00:33:50;99131.94;;;16.61;83.76
22283;BME280;11310;51.528;21.204;2023-07-20T00:36:19;99128.13;;;16.54;84.43
22283;BME280;11310;51.528;21.204;2023-07-20T00:38:48;99128.63;;;16.48;84.63
22283;BME280;11310;51.528;21.204;2023-07-20T00:41:17;99112.41;;;16.42;84.68
22283;BME280;11310;51.528;21.204;2023-07-20T00:43:48;99126.13;;;16.47;84.88
22283;BME280;11310;51.528;21.204;2023-07-20T00:46:18;99121.34;;;16.41;85.12
22283;BME280;11310;51.528;21.204;2023-07-20T00:48:51;99119.56;;;16.30;86.55
22283;BME280;11310;51.528;21.204;2023-07-20T00:51:21;99118.41;;;16.23;86.64
22283;BME280;11310;51.528;21.204;2023-07-20T00:53:51;99117.22;;;16.16;87.11
22283;BME280;11310;51.528;21.204;2023-07-20T00:56:21;99113.88;;;16.14;87.03
22283;BME280;11310;51.528;21.204;2023-07-20T00:58:52;99122.66;;;16.15;87.26
22283;BME280;11310;51.528;21.204;2023-07-20T01:01:22;99113.16;;;16.12;87.47
22283;BME280;11310;51.528;21.204;2023-07-20T01:03:51;99113.88;;;16.14;87.63
22283;BME280;11310;51.528;21.204;2023-07-20T01:06:26;99113.03;;;16.14;88.16
22283;BME280;11310;51.528;21.204;2023-07-20T01:09:07;99108.00;;;16.11;88.56
22283;BME280;11310;51.528;21.204;2023-07-20T01:11:43;99101.84;;;16.10;88.67
22283;BME280;11310;51.528;21.204;2023-07-20T01:14:18;99101.72;;;16.12;88.58
22283;BME280;11310;51.528;21.204;2023-07-20T01:16:47;99104.38;;;16.12;88.44
22283;BME280;11310;51.528;21.204;2023-07-20T01:19:17;99110.81;;;16.19;88.25
22283;BME280;11310;51.528;21.204;2023-07-20T01:21:52;99106.38;;;16.19;88.50
22283;BME280;11310;51.528;21.204;2023-07-20T01:24:45;99104.31;;;16.23;89.78
22283;BME280;11310;51.528;21.204;2023-07-20T01:28:00;99115.03;;;16.21;89.68
22283;BME280;11310;51.528;21.204;2023-07-20T01:30:46;99110.53;;;16.12;89.95
22283;BME280;11310;51.528;21.204;2023-07-20T01:33:20;99112.84;;;16.06;88.98
22283;BME280;11310;51.528;21.204;2023-07-20T01:35:54;99108.38;;;16.06;89.20
22283;BME280;11310;51.528;21.204;2023-07-20T01:38:25;99111.75;;;16.08;88.76
22283;BME280;11310;51.528;21.204;2023-07-20T01:40:54;99118.25;;;16.04;89.14
22283;BME280;11310;51.528;21.204;2023-07-20T01:43:25;99125.91;;;16.07;89.20
22283;BME280;11310;51.528;21.204;2023-07-20T01:45:55;99121.34;;;16.09;88.85
22283;BME280;11310;51.528;21.204;2023-07-20T01:48:25;99126.66;;;16.09;89.46
22283;BME280;11310;51.528;21.204;2023-07-20T01:50:54;99127.75;;;16.07;90.09
22283;BME280;11310;51.528;21.204;2023-07-20T01:53:22;99133.41;;;16.02;90.41
22283;BME280;11310;51.528;21.204;2023-07-20T01:55:52;99135.22;;;16.02;91.09
22283;BME280;11310;51.528;21.204;2023-07-20T01:58:22;99137.47;;;16.06;90.52
22283;BME280;11310;51.528;21.204;2023-07-20T02:00:51;99142.19;;;16.03;90.42
22283;BME280;11310;51.528;21.204;2023-07-20T02:03:20;99141.34;;;16.02;91.36
22283;BME280;11310;51.528;21.204;2023-07-20T02:05:52;99143.41;;;15.99;91.23
22283;BME280;11310;51.528;21.204;2023-07-20T02:08:21;99140.75;;;15.99;91.13
22283;BME280;11310;51.528;21.204;2023-07-20T02:10:50;99148.31;;;16.03;90.83
22283;BME280;11310;51.528;21.204;2023-07-20T02:13:19;99146.84;;;16.10;90.67
22283;BME280;11310;51.528;21.204;2023-07-20T02:15:48;99148.50;;;16.11;90.27
22283;BME280;11310;51.528;21.204;2023-07-20T02:18:18;99160.81;;;16.12;90.41
22283;BME280;11310;51.528;21.204;2023-07-20T02:20:54;99150.91;;;16.14;90.50
22283;BME280;11310;51.528;21.204;2023-07-20T02:23:22;99165.69;;;16.17;90.21
22283;BME280;11310;51.528;21.204;2023-07-20T02:25:52;99168.09;;;16.20;90.22
22283;BME280;11310;51.528;21.204;2023-07-20T02:28:20;99173.25;;;16.21;90.29
22283;BME280;11310;51.528;21.204;2023-07-20T02:30:49;99171.78;;;16.28;90.16
22283;BME280;11310;51.528;21.204;2023-07-20T02:33:18;99173.09;;;16.34;89.76
22283;BME280;11310;51.528;21.204;2023-07-20T02:35:48;99164.41;;;16.32;90.39
22283;BME280;11310;51.528;21.204;2023-07-20T02:38:19;99177.53;;;16.33;90.86
22283;BME280;11310;51.528;21.204;2023-07-20T02:40:48;99196.19;;;16.32;90.38
22283;BME280;11310;51.528;21.204;2023-07-20T02:43:17;99190.31;;;16.28;91.18
22283;BME280;11310;51.528;21.204;2023-07-20T02:45:46;99180.25;;;16.22;91.80
22283;BME280;11310;51.528;21.204;2023-07-20T02:48:15;99190.09;;;16.20;92.86
22283;BME280;11310;51.528;21.204;2023-07-20T02:50:44;99189.28;;;16.20;93.63
22283;BME280;11310;51.528;21.204;2023-07-20T02:53:12;99175.44;;;16.16;94.75
22283;BME280;11310;51.528;21.204;2023-07-20T02:55:43;99168.47;;;16.15;95.39
22283;BME280;11310;51.528;21.204;2023-07-20T02:58:12;99170.53;;;16.12;96.20
22283;BME280;11310;51.528;21.204;2023-07-20T03:00:42;99173.69;;;16.06;96.74
22283;BME280;11310;51.528;21.204;2023-07-20T03:03:14;99172.88;;;15.94;97.51
22283;BME280;11310;51.528;21.204;2023-07-20T03:05:43;99167.09;;;15.89;98.77
22283;BME280;11310;51.528;21.204;2023-07-20T03:08:13;99164.22;;;15.92;99.13
22283;BME280;11310;51.528;21.204;2023-07-20T03:10:44;99162.44;;;15.93;98.86
22283;BME280;11310;51.528;21.204;2023-07-20T03:13:13;99161.34;;;15.95;98.53
22283;BME280;11310;51.528;21.204;2023-07-20T03:15:43;99159.38;;;15.97;98.72
22283;BME280;11310;51.528;21.204;2023-07-20T03:18:12;99145.91;;;16.00;98.87
22283;BME280;11310;51.528;21.204;2023-07-20T03:20:41;99149.25;;;16.02;99.11
22283;BME280;11310;51.528;21.204;2023-07-20T03:23:15;99158.91;;;16.03;99.03
22283;BME280;11310;51.528;21.204;2023-07-20T03:25:45;99153.34;;;16.06;98.57
22283;BME280;11310;51.528;21.204;2023-07-20T03:28:15;99155.88;;;16.08;99.05
22283;BME280;11310;51.528;21.204;2023-07-20T03:30:47;99155.75;;;16.09;99.10
22283;BME280;11310;51.528;21.204;2023-07-20T03:33:21;99159.81;;;16.13;98.67
22283;BME280;11310;51.528;21.204;2023-07-20T03:35:49;99168.22;;;16.18;98.61
22283;BME280;11310;51.528;21.204;2023-07-20T03:38:18;99177.84;;;16.19;98.70
22283;BME280;11310;51.528;21.204;2023-07-20T03:40:52;99192.41;;;16.14;99.55
22283;BME280;11310;51.528;21.204;2023-07-20T03:43:22;99213.97;;;16.09;99.74
22283;BME280;11310;51.528;21.204;2023-07-20T03:45:54;99221.91;;;16.09;100.00
22283;BME280;11310;51.528;21.204;2023-07-20T03:48:24;99237.78;;;16.09;100.00
22283;BME280;11310;51.528;21.204;2023-07-20T03:50:54;99248.13;;;16.12;100.00
22283;BME280;11310;51.528;21.204;2023-07-20T03:53:25;99241.97;;;16.12;100.00
22283;BME280;11310;51.528;21.204;2023-07-20T03:55:56;99252.56;;;16.12;100.00
22283;BME280;11310;51.528;21.204;2023-07-20T03:58:25;99260.75;;;16.09;100.00
22283;BME280;11310;51.528;21.204;2023-07-20T04:00:54;99291.19;;;16.03;100.00
22283;BME280;11310;51.528;21.204;2023-07-20T04:03:23;99308.28;;;15.99;100.00
22283;BME280;11310;51.528;21.204;2023-07-20T04:05:54;99323.19;;;16.00;100.00
22283;BME280;11310;51.528;21.204;2023-07-20T04:08:24;99331.81;;;16.02;100.00
22283;BME280;11310;51.528;21.204;2023-07-20T04:10:53;99326.81;;;15.99;100.00
22283;BME280;11310;51.528;21.204;2023-07-20T04:13:25;99320.06;;;15.95;100.00
22283;BME280;11310;51.528;21.204;2023-07-20T04:15:55;99311.75;;;16.00;100.00
22283;BME280;11310;51.528;21.204;2023-07-20T04:18:25;99308.75;;;15.93;100.00
22283;BME280;11310;51.528;21.204;2023-07-20T04:20:54;99300.94;;;15.92;100.00
22283;BME280;11310;51.528;21.204;2023-07-20T04:23:23;99305.88;;;15.96;100.00
22283;BME280;11310;51.528;21.204;2023-07-20T04:25:53;99317.03;;;16.00;100.00
22283;BME280;11310;51.528;21.204;2023-07-20T04:28:23;99313.81;;;15.96;100.00
22283;BME280;11310;51.528;21.204;2023-07-20T04:30:52;99312.00;;;15.97;100.00
22283;BME280;11310;51.528;21.204;2023-07-20T04:33:24;99316.34;;;15.98;100.00
22283;BME280;11310;51.528;21.204;2023-07-20T04:35:57;99306.94;;;15.94;100.00
22283;BME280;11310;51.528;21.204;2023-07-20T04:38:29;99313.91;;;15.95;100.00
22283;BME280;11310;51.528;21.204;2023-07-20T04:41:08;99309.81;;;15.91;100.00
22283;BME280;11310;51.528;21.204;2023-07-20T04:43:43;99310.69;;;15.91;100.00
22283;BME280;11310;51.528;21.204;2023-07-20T04:46:18;99317.53;;;15.94;100.00
22283;BME280;11310;51.528;21.204;2023-07-20T04:48:52;99327.25;;;15.93;100.00
22283;BME280;11310;51.528;21.204;2023-07-20T04:51:23;99336.16;;;15.92;100.00
22283;BME280;11310;51.528;21.204;2023-07-20T04:53:55;99353.13;;;15.90;100.00
22283;BME280;11310;51.528;21.204;2023-07-20T04:56:27;99355.50;;;15.82;100.00
22283;BME280;11310;51.528;21.204;2023-07-20T04:59:04;99362.50;;;15.83;100.00
22283;BME280;11310;51.528;21.204;2023-07-20T05:01:33;99365.75;;;15.86;100.00
22283;BME280;11310;51.528;21.204;2023-07-20T05:04:03;99356.63;;;15.90;100.00
22283;BME280;11310;51.528;21.204;2023-07-20T05:06:35;99353.88;;;15.92;100.00
22283;BME280;11310;51.528;21.204;2023-07-20T05:09:06;99338.47;;;15.97;100.00
22283;BME280;11310;51.528;21.204;2023-07-20T05:11:35;99334.00;;;15.97;100.00
22283;BME280;11310;51.528;21.204;2023-07-20T05:14:11;99323.41;;;15.97;100.00
22283;BME280;11310;51.528;21.204;2023-07-20T05:16:40;99334.63;;;16.01;100.00
22283;BME280;11310;51.528;21.204;2023-07-20T05:19:09;99328.47;;;16.00;100.00
22283;BME280;11310;51.528;21.204;2023-07-20T05:29:24;99310.09;;;15.66;100.00
22283;BME280;11310;51.528;21.204;2023-07-20T05:31:55;99323.06;;;15.69;100.00
22283;BME280;11310;51.528;21.204;2023-07-20T05:34:24;99341.22;;;15.73;100.00
22283;BME280;11310;51.528;21.204;2023-07-20T05:36:54;99349.75;;;15.66;100.00
22283;BME280;11310;51.528;21.204;2023-07-20T05:39:24;99342.41;;;15.58;100.00
22283;BME280;11310;51.528;21.204;2023-07-20T05:41:53;99329.19;;;15.69;100.00
22283;BME280;11310;51.528;21.204;2023-07-20T05:44:24;99328.00;;;15.73;100.00
22283;BME280;11310;51.528;21.204;2023-07-20T05:46:53;99328.59;;;15.77;100.00
22283;BME280;11310;51.528;21.204;2023-07-20T05:49:25;99318.38;;;15.72;100.00
22283;BME280;11310;51.528;21.204;2023-07-20T05:51:54;99294.69;;;15.71;100.00
22283;BME280;11310;51.528;21.204;2023-07-20T05:54:24;99295.28;;;15.74;100.00
22283;BME280;11310;51.528;21.204;2023-07-20T05:56:54;99297.59;;;15.79;100.00
22283;BME280;11310;51.528;21.204;2023-07-20T05:59:27;99298.19;;;15.82;100.00
22283;BME280;11310;51.528;21.204;2023-07-20T06:01:58;99303.59;;;15.81;100.00
22283;BME280;11310;51.528;21.204;2023-07-20T06:04:28;99283.41;;;15.80;100.00
22283;BME280;11310;51.528;21.204;2023-07-20T06:06:57;99278.00;;;15.81;100.00
22283;BME280;11310;51.528;21.204;2023-07-20T06:09:26;99278.00;;;15.81;100.00
22283;BME280;11310;51.528;21.204;2023-07-20T06:11:56;99278.81;;;15.82;100.00
22283;BME280;11310;51.528;21.204;2023-07-20T06:14:26;99287.13;;;15.77;100.00
22283;BME280;11310;51.528;21.204;2023-07-20T06:16:55;99305.03;;;15.74;100.00
22283;BME280;11310;51.528;21.204;2023-07-20T06:19:25;99297.59;;;15.79;100.00
22283;BME280;11310;51.528;21.204;2023-07-20T06:21:57;99301.91;;;15.91;100.00
22283;BME280;11310;51.528;21.204;2023-07-20T06:24:27;99285.19;;;15.90;100.00
22283;BME280;11310;51.528;21.204;2023-07-20T06:26:56;99280.13;;;15.98;100.00
22283;BME280;11310;51.528;21.204;2023-07-20T06:34:16;99289.28;;;15.94;100.00
22283;BME280;11310;51.528;21.204;2023-07-20T06:36:48;99289.03;;;16.08;100.00
22283;BME280;11310;51.528;21.204;2023-07-20T06:39:18;99287.81;;;16.12;100.00
22283;BME280;11310;51.528;21.204;2023-07-20T06:41:50;99290.78;;;16.19;100.00
22283;BME280;11310;51.528;21.204;2023-07-20T06:44:22;99285.19;;;16.12;100.00
22283;BME280;11310;51.528;21.204;2023-07-20T06:46:52;99283.47;;;16.11;100.00
22283;BME280;11310;51.528;21.204;2023-07-20T06:49:27;99298.13;;;16.15;100.00
22283;BME280;11310;51.528;21.204;2023-07-20T06:51:58;99296.94;;;16.19;100.00
22283;BME280;11310;51.528;21.204;2023-07-20T06:56:23;99319.66;;;16.33;100.00
22283;BME280;11310;51.528;21.204;2023-07-20T06:58:53;99325.06;;;16.42;100.00
22283;BME280;11310;51.528;21.204;2023-07-20T07:01:22;99337.22;;;16.45;100.00
22283;BME280;11310;51.528;21.204;2023-07-20T07:03:53;99331.56;;;16.49;100.00
22283;BME280;11310;51.528;21.204;2023-07-20T07:06:23;99336.34;;;16.55;100.00
22283;BME280;11310;51.528;21.204;2023-07-20T07:08:53;99332.50;;;16.59;100.00
22283;BME280;11310;51.528;21.204;2023-07-20T07:11:24;99332.97;;;16.64;100.00
22283;BME280;11310;51.528;21.204;2023-07-20T07:13:53;99331.34;;;16.73;100.00
22283;BME280;11310;51.528;21.204;2023-07-20T07:16:25;99334.81;;;16.84;100.00
22283;BME280;11310;51.528;21.204;2023-07-20T07:18:55;99343.66;;;16.94;100.00
22283;BME280;11310;51.528;21.204;2023-07-20T07:21:26;99356.78;;;17.07;100.00
22283;BME280;11310;51.528;21.204;2023-07-20T07:23:55;99357.81;;;17.15;100.00
22283;BME280;11310;51.528;21.204;2023-07-20T07:26:28;99352.13;;;17.20;100.00
22283;BME280;11310;51.528;21.204;2023-07-20T07:28:57;99362.91;;;17.28;100.00
22283;BME280;11310;51.528;21.204;2023-07-20T07:31:26;99364.22;;;17.33;100.00
22283;BME280;11310;51.528;21.204;2023-07-20T07:33:55;99356.63;;;17.40;100.00
22283;BME280;11310;51.528;21.204;2023-07-20T07:36:24;99356.94;;;17.46;100.00
22283;BME280;11310;51.528;21.204;2023-07-20T07:38:53;99355.84;;;17.49;100.00
22283;BME280;11310;51.528;21.204;2023-07-20T07:41:24;99364.38;;;17.52;100.00
22283;BME280;11310;51.528;21.204;2023-07-20T07:43:55;99364.13;;;17.55;100.00
22283;BME280;11310;51.528;21.204;2023-07-20T07:46:30;99360.63;;;17.55;100.00
22283;BME280;11310;51.528;21.204;2023-07-20T07:49:00;99361.16;;;17.49;100.00
22283;BME280;11310;51.528;21.204;2023-07-20T07:51:29;99367.56;;;17.46;100.00
22283;BME280;11310;51.528;21.204;2023-07-20T07:53:58;99368.00;;;17.51;100.00
22283;BME280;11310;51.528;21.204;2023-07-20T07:56:27;99369.03;;;17.60;100.00
22283;BME280;11310;51.528;21.204;2023-07-20T07:58:57;99377.50;;;17.74;100.00
22283;BME280;11310;51.528;21.204;2023-07-20T08:01:28;99378.38;;;17.84;100.00
22283;BME280;11310;51.528;21.204;2023-07-20T08:03:57;99378.56;;;17.92;100.00
22283;BME280;11310;51.528;21.204;2023-07-20T08:06:26;99384.91;;;18.01;100.00
22283;BME280;11310;51.528;21.204;2023-07-20T08:08:56;99387.72;;;18.09;100.00
22283;BME280;11310;51.528;21.204;2023-07-20T08:11:25;99390.56;;;18.17;100.00
22283;BME280;11310;51.528;21.204;2023-07-20T08:13:56;99387.50;;;18.21;100.00
22283;BME280;11310;51.528;21.204;2023-07-20T08:16:25;99392.59;;;18.34;100.00
22283;BME280;11310;51.528;21.204;2023-07-20T08:18:55;99394.63;;;18.51;100.00
22283;BME280;11310;51.528;21.204;2023-07-20T08:21:25;99401.53;;;18.63;100.00
22283;BME280;11310;51.528;21.204;2023-07-20T08:24:00;99404.47;;;18.69;100.00
22283;BME280;11310;51.528;21.204;2023-07-20T08:26:32;99400.56;;;18.73;100.00
22283;BME280;11310;51.528;21.204;2023-07-20T08:29:03;99402.94;;;18.76;100.00
22283;BME280;11310;51.528;21.204;2023-07-20T08:31:32;99403.53;;;18.89;100.00
22283;BME280;11310;51.528;21.204;2023-07-20T08:34:01;99412.38;;;19.09;100.00
22283;BME280;11310;51.528;21.204;2023-07-20T08:36:47;99404.56;;;19.36;100.00
22283;BME280;11310;51.528;21.204;2023-07-20T08:39:19;99407.63;;;19.60;100.00
22283;BME280;11310;51.528;21.204;2023-07-20T08:41:49;99405.66;;;19.71;100.00
22283;BME280;11310;51.528;21.204;2023-07-20T08:44:21;99417.91;;;20.01;100.00
22283;BME280;11310;51.528;21.204;2023-07-20T08:46:55;99414.94;;;20.23;100.00
22283;BME280;11310;51.528;21.204;2023-07-20T08:49:26;99417.78;;;20.48;100.00
22283;BME280;11310;51.528;21.204;2023-07-20T08:51:55;99424.16;;;20.55;100.00
22283;BME280;11310;51.528;21.204;2023-07-20T08:54:28;99415.59;;;20.61;100.00
22283;BME280;11310;51.528;21.204;2023-07-20T08:57:06;99432.88;;;20.57;100.00
22283;BME280;11310;51.528;21.204;2023-07-20T08:59:39;99426.91;;;20.46;100.00
22283;BME280;11310;51.528;21.204;2023-07-20T09:02:10;99428.53;;;20.29;100.00
22283;BME280;11310;51.528;21.204;2023-07-20T09:04:46;99424.78;;;20.03;100.00
22283;BME280;11310;51.528;21.204;2023-07-20T09:07:16;99425.53;;;19.67;100.00
22283;BME280;11310;51.528;21.204;2023-07-20T09:09:48;99424.03;;;19.46;100.00
22283;BME280;11310;51.528;21.204;2023-07-20T09:12:18;99420.53;;;19.36;100.00
22283;BME280;11310;51.528;21.204;2023-07-20T09:14:50;99427.81;;;19.34;100.00
22283;BME280;11310;51.528;21.204;2023-07-20T09:17:26;99428.22;;;19.39;100.00
22283;BME280;11310;51.528;21.204;2023-07-20T09:19:57;99422.50;;;19.43;100.00
22283;BME280;11310;51.528;21.204;2023-07-20T09:22:34;99426.69;;;19.55;100.00
22283;BME280;11310;51.528;21.204;2023-07-20T09:25:06;99429.47;;;19.63;100.00
22283;BME280;11310;51.528;21.204;2023-07-20T09:27:37;99437.03;;;19.68;100.00
22283;BME280;11310;51.528;21.204;2023-07-20T09:30:09;99438.44;;;19.62;100.00
22283;BME280;11310;51.528;21.204;2023-07-20T09:32:46;99436.75;;;19.52;100.00
22283;BME280;11310;51.528;21.204;2023-07-20T09:35:20;99447.44;;;19.42;100.00
22283;BME280;11310;51.528;21.204;2023-07-20T09:38:10;99442.34;;;19.30;100.00
22283;BME280;11310;51.528;21.204;2023-07-20T09:40:42;99451.31;;;19.19;100.00
22283;BME280;11310;51.528;21.204;2023-07-20T09:43:16;99444.56;;;19.15;100.00
22283;BME280;11310;51.528;21.204;2023-07-20T09:45:50;99446.50;;;19.13;100.00
22283;BME280;11310;51.528;21.204;2023-07-20T09:48:24;99450.16;;;19.12;100.00
22283;BME280;11310;51.528;21.204;2023-07-20T09:50:57;99442.44;;;19.09;100.00
22283;BME280;11310;51.528;21.204;2023-07-20T09:53:28;99446.38;;;19.15;100.00
22283;BME280;11310;51.528;21.204;2023-07-20T09:55:59;99443.72;;;19.15;100.00
22283;BME280;11310;51.528;21.204;2023-07-20T09:58:28;99445.00;;;19.20;100.00
22283;BME280;11310;51.528;21.204;2023-07-20T10:01:01;99443.22;;;19.30;100.00
22283;BME280;11310;51.528;21.204;2023-07-20T10:03:32;99446.84;;;19.48;100.00
22283;BME280;11310;51.528;21.204;2023-07-20T10:06:06;99447.81;;;19.66;100.00
22283;BME280;11310;51.528;21.204;2023-07-20T10:08:38;99446.69;;;19.78;100.00
22283;BME280;11310;51.528;21.204;2023-07-20T10:11:15;99446.53;;;19.80;100.00
22283;BME280;11310;51.528;21.204;2023-07-20T10:13:46;99449.38;;;19.78;100.00
22283;BME280;11310;51.528;21.204;2023-07-20T10:16:26;99450.75;;;19.73;100.00
22283;BME280;11310;51.528;21.204;2023-07-20T10:19:03;99448.50;;;19.68;100.00
22283;BME280;11310;51.528;21.204;2023-07-20T10:21:47;99445.56;;;19.71;100.00
22283;BME280;11310;51.528;21.204;2023-07-20T10:24:24;99452.84;;;19.79;100.00
22283;BME280;11310;51.528;21.204;2023-07-20T10:26:57;99441.22;;;19.89;100.00
22283;BME280;11310;51.528;21.204;2023-07-20T10:29:29;99440.91;;;20.11;100.00
22283;BME280;11310;51.528;21.204;2023-07-20T10:32:01;99443.63;;;20.38;100.00
22283;BME280;11310;51.528;21.204;2023-07-20T10:34:30;99438.09;;;20.76;100.00
22283;BME280;11310;51.528;21.204;2023-07-20T10:36:59;99441.56;;;21.14;100.00
22283;BME280;11310;51.528;21.204;2023-07-20T10:39:31;99433.94;;;21.19;100.00
22283;BME280;11310;51.528;21.204;2023-07-20T10:42:02;99441.78;;;21.20;100.00
22283;BME280;11310;51.528;21.204;2023-07-20T10:44:31;99432.31;;;21.61;99.58
22283;BME280;11310;51.528;21.204;2023-07-20T10:47:03;99434.34;;;22.02;98.53
22283;BME280;11310;51.528;21.204;2023-07-20T10:49:34;99429.09;;;21.92;96.69
22283;BME280;11310;51.528;21.204;2023-07-20T10:52:05;99438.34;;;21.80;95.97
22283;BME280;11310;51.528;21.204;2023-07-20T10:54:39;99440.94;;;21.55;96.71
22283;BME280;11310;51.528;21.204;2023-07-20T10:57:24;99440.50;;;21.42;98.43
22283;BME280;11310;51.528;21.204;2023-07-20T11:00:07;99441.56;;;21.49;98.01
22283;BME280;11310;51.528;21.204;2023-07-20T11:02:49;99440.81;;;21.56;96.20
22283;BME280;11310;51.528;21.204;2023-07-20T11:05:38;99445.38;;;21.64;96.72
22283;BME280;11310;51.528;21.204;2023-07-20T11:08:12;99436.13;;;21.58;97.10
22283;BME280;11310;51.528;21.204;2023-07-20T11:10:41;99435.38;;;21.48;97.60
22283;BME280;11310;51.528;21.204;2023-07-20T11:13:22;99440.88;;;21.64;97.85
22283;BME280;11310;51.528;21.204;2023-07-20T11:16:02;99430.25;;;22.15;96.14
22283;BME280;11310;51.528;21.204;2023-07-20T11:18:37;99434.94;;;22.80;90.97
22283;BME280;11310;51.528;21.204;2023-07-20T11:21:09;99428.25;;;23.34;87.28
22283;BME280;11310;51.528;21.204;2023-07-20T11:23:39;99431.13;;;23.72;87.89
22283;BME280;11310;51.528;21.204;2023-07-20T11:26:10;99426.94;;;23.94;87.47
22283;BME280;11310;51.528;21.204;2023-07-20T11:28:39;99427.75;;;24.10;84.65
22283;BME280;11310;51.528;21.204;2023-07-20T11:31:09;99423.91;;;23.65;85.69
22283;BME280;11310;51.528;21.204;2023-07-20T11:33:43;99434.88;;;23.14;87.15
22283;BME280;11310;51.528;21.204;2023-07-20T11:36:13;99426.06;;;22.72;89.47
22283;BME280;11310;51.528;21.204;2023-07-20T11:38:47;99423.66;;;22.53;89.80
22283;BME280;11310;51.528;21.204;2023-07-20T11:41:16;99420.03;;;22.70;91.53
22283;BME280;11310;51.528;21.204;2023-07-20T11:43:47;99410.50;;;23.25;88.94
22283;BME280;11310;51.528;21.204;2023-07-20T11:46:16;99418.56;;;23.73;86.97
22283;BME280;11310;51.528;21.204;2023-07-20T11:48:47;99406.69;;;23.75;83.46
22283;BME280;11310;51.528;21.204;2023-07-20T11:51:22;99412.19;;;23.98;83.37
22283;BME280;11310;51.528;21.204;2023-07-20T11:53:55;99410.78;;;24.26;83.35
22283;BME280;11310;51.528;21.204;2023-07-20T11:56:25;99411.78;;;24.33;82.31
22283;BME280;11310;51.528;21.204;2023-07-20T11:58:55;99401.16;;;23.93;82.69
22283;BME280;11310;51.528;21.204;2023-07-20T12:01:30;99404.19;;;23.50;84.37
22283;BME280;11310;51.528;21.204;2023-07-20T12:04:04;99397.44;;;23.30;84.22
22283;BME280;11310;51.528;21.204;2023-07-20T12:06:34;99393.78;;;23.55;85.23
22283;BME280;11310;51.528;21.204;2023-07-20T12:09:04;99391.78;;;23.97;82.87
22283;BME280;11310;51.528;21.204;2023-07-20T12:11:34;99396.72;;;24.32;81.07
22283;BME280;11310;51.528;21.204;2023-07-20T12:14:08;99394.97;;;24.47;82.13
22283;BME280;11310;51.528;21.204;2023-07-20T12:16:51;99394.28;;;24.61;79.91
22283;BME280;11310;51.528;21.204;2023-07-20T12:19:25;99400.22;;;24.79;78.02
22283;BME280;11310;51.528;21.204;2023-07-20T12:21:57;99397.66;;;24.93;77.05
22283;BME280;11310;51.528;21.204;2023-07-20T12:24:28;99398.00;;;24.90;79.38
22283;BME280;11310;51.528;21.204;2023-07-20T12:26:58;99395.28;;;24.52;78.69
22283;BME280;11310;51.528;21.204;2023-07-20T12:29:28;99393.06;;;24.17;80.42
22283;BME280;11310;51.528;21.204;2023-07-20T12:32:01;99390.75;;;23.90;81.76
22283;BME280;11310;51.528;21.204;2023-07-20T12:34:31;99388.94;;;23.74;82.71
22283;BME280;11310;51.528;21.204;2023-07-20T12:37:03;99388.28;;;23.56;82.93
22283;BME280;11310;51.528;21.204;2023-07-20T12:39:32;99389.94;;;23.41;82.78
22283;BME280;11310;51.528;21.204;2023-07-20T12:42:01;99384.41;;;23.27;83.18
22283;BME280;11310;51.528;21.204;2023-07-20T12:44:30;99379.69;;;23.13;83.19
22283;BME280;11310;51.528;21.204;2023-07-20T12:46:59;99381.66;;;22.95;84.35
22283;BME280;11310;51.528;21.204;2023-07-20T12:49:32;99383.97;;;22.82;85.54
22283;BME280;11310;51.528;21.204;2023-07-20T12:52:03;99376.22;;;22.63;86.77
22283;BME280;11310;51.528;21.204;2023-07-20T12:54:32;99372.16;;;22.51;87.28
22283;BME280;11310;51.528;21.204;2023-07-20T12:57:01;99369.41;;;22.43;86.47
22283;BME280;11310;51.528;21.204;2023-07-20T12:59:35;99367.69;;;22.34;85.79
22283;BME280;11310;51.528;21.204;2023-07-20T13:02:06;99368.16;;;22.21;85.03
22283;BME280;11310;51.528;21.204;2023-07-20T13:04:37;99373.78;;;22.10;86.43
22283;BME280;11310;51.528;21.204;2023-07-20T13:07:10;99366.56;;;22.03;88.10
22283;BME280;11310;51.528;21.204;2023-07-20T13:09:42;99375.03;;;21.98;88.13
22283;BME280;11310;51.528;21.204;2023-07-20T13:12:11;99370.63;;;21.89;87.96
22283;BME280;11310;51.528;21.204;2023-07-20T13:14:40;99371.75;;;21.79;87.71
22283;BME280;11310;51.528;21.204;2023-07-20T13:17:09;99367.63;;;21.67;87.88
22283;BME280;11310;51.528;21.204;2023-07-20T13:19:40;99360.34;;;21.51;88.35
22283;BME280;11310;51.528;21.204;2023-07-20T13:22:10;99373.38;;;21.37;88.42